Nickerson, NE (68044)

06:44 PM CDT del 26 Marzo 2015 (GMT -0500)
Fremont Municipal | | Change Station
CLOSE
Current Station
Aeroporto
Location: Fremont,
Altitudine: 1204 ft
Stazioni meteo nelle vicinanze

Alt. 1204 ft 41.45 °N, 96.52 °W | Updated 9 minutes ago

Pioggia
Pioggia
37 °F
Sembra 35 °F
N
4
Vento Variabile Vento da Nord

Oggi
Massima -- | Minima -- °F
--% Possibilità di precip.
Ieri
Massima -- | Minima -- °F
Precip. -- in
7:19 AM 7:44 PM
Luna crescente, 47% visible
Pressione 30.15 in
Visibilità 10.0 miglia
Nuvole Nubi sparse 900 ft
Nubi sparse 3400 ft
Coperto 4200 ft
Raffreddamento del vento 35 °F
Punto di rugiada 35 °F
Umidità 91%
Piovosità 0.06 in
Spessore del manto nevoso Non disponibile.
Raggi UV 0 fuori da 12
Polline 6.90 fuori da 12
Qualità dell'aria Non disponibile.
Flu Activity Non disponibile.
METAR KFET 262335Z AUTO 36003KT 10SM SCT009 SCT034 OVC042 03/02 A3015 RMK AO2 T00290016

More Conditions Fewer Conditions

Pressione 30.15 in
Visibilità 10.0 miglia
Nuvole Nubi sparse 900 ft
Nubi sparse 3400 ft
Coperto 4200 ft
Raffreddamento del vento 35 °F
Punto di rugiada 35 °F
Umidità 91%
Piovosità 0.06 in
Spessore del manto nevoso Non disponibile.
Raggi UV 0 fuori da 12
Polline 6.90 fuori da 12
Qualità dell'aria Non disponibile.
Flu Activity Non disponibile.
METAR KFET 262335Z AUTO 36003KT 10SM SCT009 SCT034 OVC042 03/02 A3015 RMK AO2 T00290016

More Conditions Fewer Conditions

10-Day Weather Forecast

Almanac

Astronomia

Mar. 26, 2015 Alba Tramonto
Ora attuale
Crepuscolo civile
Crepuscolo nautico
Crepuscolo astronomico
Luna
Estensione della luce visibile
Lunghezza del giorno
Tomorrow will be .
, % of the Moon is Illuminated

Gli estremi di oggi

State Highs State Lows

Community

WunderPhotos

Upload Photos

1,808,643 foto caricate!

WunderBlogs® & News

Nearby

Qualità dell'aria

  Qualità dell'aria Indice AQ Inquinante
Not available.

Profondità neve

Stazione Profondità Altitudine

Attività sismica

Città  Distanza Mag. Data & Ora
Minimo Magnitudo Mostrato è 2.5.

Temperature delle acque costiere

Località Temperatura

Stations

Stazioni meteo nelle vicinanze

Ubicazione della stazione Temp. Raffreddamento del vento Punto di rugiada Umidità Vento Precip. Alt. Aggiornato Tipo